Terminal Aerodrome Forecast
Issued by NWS

Home | Current Version | Previous Version | Text Only | Print | Product List | Glossary On
Versions: 1 2 3 4 5 6 7 8 9 10 11 12 13 14 15 16
000
FTUS44 KTSA 261700
TAFFYV
TAF
KFYV 261737Z 2618/2718 21012KT P6SM SCT250
     FM270200 19006KT P6SM BKN200
     FM271500 23010KT P6SM BKN130=

USA.gov is the U.S. government's official web portal to all federal, state and local government web resources and services.